Time;durP1;ratioP1;P1;durP2;ratioP2;P2;SDS_P1;SDS_P2;PMS_P1;PMS_P2;Temp;Humidity;BMP_temperature;BMP_pressure;BME280_temperature;BME280_humidity;BME280_pressure;Samples;Min_cycle;Max_cycle;Signal;HPM_P1;HPM_P2
2023/11/07 07:18:47;;;;;;;0.60;0.30;;;;;;;10.15;77.57;96349.21;104555;1299;561499;-86
2023/11/07 07:21:15;;;;;;;0.80;0.40;;;;;;;10.20;77.27;96357.69;106362;1291;107829;-86
2023/11/07 07:23:46;;;;;;;1.10;0.50;;;;;;;10.15;78.21;96360.30;106346;1291;137877;-87
2023/11/07 07:26:14;;;;;;;1.40;0.40;;;;;;;10.08;77.93;96368.75;109387;1285;22502;-87
2023/11/07 07:28:40;;;;;;;0.90;0.40;;;;;;;10.02;78.92;96372.30;107383;1291;137836;-87
2023/11/07 07:31:06;;;;;;;2.40;0.50;;;;;;;9.94;79.05;96370.91;106437;1291;22553;-87
2023/11/07 07:33:36;;;;;;;1.00;0.60;;;;;;;9.84;79.28;96377.27;106290;1291;22558;-86
2023/11/07 07:36:10;;;;;;;1.10;0.60;;;;;;;9.75;78.38;96375.21;106159;1285;137324;-87
2023/11/07 07:38:35;;;;;;;0.70;0.40;;;;;;;9.67;79.44;96378.73;106189;1291;22548;-87
2023/11/07 07:41:02;;;;;;;0.70;0.40;;;;;;;9.62;79.63;96378.27;106278;1291;137896;-87
2023/11/07 07:43:28;;;;;;;1.60;0.30;;;;;;;9.57;80.06;96377.08;106270;1292;22562;-87
2023/11/07 07:45:55;;;;;;;0.80;0.50;;;;;;;9.52;80.32;96379.80;106163;1292;25386;-86
2023/11/07 07:48:22;;;;;;;4.20;0.90;;;;;;;9.48;79.88;96381.74;107867;1291;137810;-87
2023/11/07 07:50:48;;;;;;;1.50;0.70;;;;;;;9.46;79.56;96381.60;106284;1291;24281;-85
2023/11/07 07:53:15;;;;;;;1.70;1.00;;;;;;;9.45;79.16;96384.36;106109;1292;137639;-87
2023/11/07 07:55:43;;;;;;;1.40;0.60;;;;;;;9.45;79.73;96383.36;106845;1284;22563;-86
2023/11/07 07:58:09;;;;;;;3.00;1.10;;;;;;;9.43;80.07;96382.69;109811;1283;22433;-88
2023/11/07 08:00:37;;;;;;;3.70;2.00;;;;;;;9.39;79.22;96384.40;109710;1278;138661;-87
2023/11/07 08:03:06;;;;;;;2.80;1.80;;;;;;;9.40;78.45;96387.82;108549;1283;24230;-87
2023/11/07 08:05:33;;;;;;;3.70;1.30;;;;;;;9.47;78.34;96391.73;106548;1284;137869;-86
2023/11/07 08:07:59;;;;;;;2.50;1.20;;;;;;;9.52;78.45;96392.20;106911;1282;23375;-87
2023/11/07 08:10:26;;;;;;;2.60;0.90;;;;;;;9.56;78.32;96393.50;106858;1262;137845;-87
2023/11/07 08:12:54;;;;;;;4.10;1.70;;;;;;;9.59;77.80;96399.50;106791;1284;25390;-87
2023/11/07 08:15:20;;;;;;;101.00;55.00;;;;;;;9.63;77.41;96402.17;108512;1285;22540;-87
2023/11/07 08:17:48;;;;;;;66.90;36.20;;;;;;;9.68;77.08;96404.56;106751;1284;137804;-86
2023/11/07 08:20:19;;;;;;;57.50;24.80;;;;;;;9.74;77.29;96407.88;106688;1284;22549;-86
2023/11/07 08:22:46;;;;;;;45.00;15.70;;;;;;;9.78;77.04;96404.73;109718;1284;138318;-88
2023/11/07 08:25:17;;;;;;;20.50;8.10;;;;;;;9.83;76.78;96406.09;109893;1285;22362;-87
2023/11/07 08:27:44;;;;;;;27.60;8.60;;;;;;;9.89;76.64;96405.77;109818;1284;23201;-87
2023/11/07 08:30:12;;;;;;;17.10;6.40;;;;;;;9.94;76.63;96407.93;109714;1284;138056;-87
2023/11/07 08:32:42;;;;;;;19.50;5.70;;;;;;;10.00;76.72;96406.45;109795;1284;22361;-87
2023/11/07 08:35:11;;;;;;;28.60;8.50;;;;;;;10.06;76.62;96407.38;109588;1285;138341;-87
2023/11/07 08:37:38;;;;;;;19.70;7.10;;;;;;;10.14;75.95;96409.30;109815;1275;22866;-87
2023/11/07 08:40:06;;;;;;;9.90;4.10;;;;;;;10.21;75.19;96407.58;109437;1272;22581;-87
2023/11/07 08:42:32;;;;;;;2.50;0.80;;;;;;;10.28;74.72;96404.19;106624;1284;138757;-86
2023/11/07 08:44:59;;;;;;;11.60;5.00;;;;;;;10.35;74.65;96406.63;106775;1280;22686;-88
2023/11/07 08:47:27;;;;;;;8.60;4.00;;;;;;;10.43;74.22;96407.49;106662;1268;137793;-87
2023/11/07 08:49:57;;;;;;;4.60;3.30;;;;;;;10.47;73.85;96409.07;106831;1284;22598;-86
2023/11/07 08:52:24;;;;;;;1.60;1.20;;;;;;;10.50;72.79;96411.78;106667;1284;138655;-86
2023/11/07 08:54:51;;;;;;;3.30;0.90;;;;;;;10.56;72.64;96410.27;106754;1275;22537;-86
2023/11/07 08:57:17;;;;;;;2.70;1.00;;;;;;;10.59;72.00;96410.06;106953;1281;22530;-88
2023/11/07 08:59:44;;;;;;;1.40;0.80;;;;;;;10.62;71.56;96411.77;106714;1284;137636;-87
2023/11/07 09:02:12;;;;;;;1.30;0.30;;;;;;;10.65;71.29;96412.45;106779;1284;24259;-87
2023/11/07 09:04:38;;;;;;;3.10;0.80;;;;;;;10.67;70.11;96410.31;106720;1283;137712;-87
2023/11/07 09:07:04;;;;;;;1.50;0.60;;;;;;;10.70;70.22;96419.38;106750;1284;25294;-87
2023/11/07 09:09:30;;;;;;;1.50;0.50;;;;;;;10.70;69.07;96423.77;106754;1281;22572;-87
2023/11/07 09:11:56;;;;;;;3.00;0.70;;;;;;;10.72;69.03;96420.28;106694;1263;137118;-87
2023/11/07 09:14:22;;;;;;;1.60;0.90;;;;;;;10.73;69.29;96426.93;106711;1284;23058;-87
2023/11/07 09:16:48;;;;;;;1.80;0.80;;;;;;;10.75;68.24;96427.58;106651;1284;137740;-86
2023/11/07 09:19:14;;;;;;;2.30;0.80;;;;;;;10.77;68.58;96429.52;106763;1284;23315;-86
2023/11/07 09:21:40;;;;;;;2.60;0.80;;;;;;;10.79;68.44;96430.54;106720;1285;22562;-87
2023/11/07 09:24:06;;;;;;;4.50;0.80;;;;;;;10.80;68.36;96424.39;106693;1284;136829;-87
2023/11/07 09:26:32;;;;;;;1.60;0.70;;;;;;;10.83;68.17;96423.63;106743;1284;22608;-87
2023/11/07 09:28:58;;;;;;;2.10;0.90;;;;;;;10.88;68.24;96426.52;106692;1284;137017;-86
2023/11/07 09:31:24;;;;;;;2.70;0.80;;;;;;;10.93;67.64;96432.06;106730;1282;24384;-86
2023/11/07 09:33:50;;;;;;;4.20;0.90;;;;;;;10.97;68.14;96430.47;106749;1282;24382;-86
2023/11/07 09:36:16;;;;;;;33.70;9.90;;;;;;;11.00;68.09;96427.54;106626;1284;136809;-87
2023/11/07 09:38:43;;;;;;;27.80;9.80;;;;;;;11.03;68.06;96429.95;106737;1284;23267;-87
2023/11/07 09:41:10;;;;;;;6.30;2.60;;;;;;;11.05;67.90;96426.19;106655;1284;136994;-87
2023/11/07 09:43:38;;;;;;;3.00;1.20;;;;;;;11.07;67.97;96427.20;106694;1279;24240;-87
2023/11/07 09:46:05;;;;;;;14.80;4.60;;;;;;;11.08;67.64;96431.96;106642;1280;24364;-87
2023/11/07 09:48:31;;;;;;;5.80;2.10;;;;;;;11.09;67.18;96430.33;106790;1262;137754;-88
2023/11/07 09:50:58;;;;;;;4.30;0.90;;;;;;;11.10;66.88;96430.30;106985;1284;22663;-87
2023/11/07 09:53:24;;;;;;;2.00;0.80;;;;;;;11.10;66.90;96432.42;106877;1279;136967;-86
2023/11/07 09:55:54;;;;;;;5.20;2.70;;;;;;;11.11;67.12;96437.95;106894;1284;22657;-86
2023/11/07 09:58:24;;;;;;;4.30;2.60;;;;;;;11.15;67.53;96439.07;106957;1281;24411;-87
2023/11/07 10:00:52;;;;;;;4.20;2.60;;;;;;;11.20;67.02;96442.15;106681;1282;22533;-86
2023/11/07 10:03:18;;;;;;;2.20;1.10;;;;;;;11.23;67.17;96439.00;106773;1284;22754;-87
2023/11/07 10:05:47;;;;;;;1.20;0.50;;;;;;;11.24;67.14;96440.30;106539;1285;137042;-87
2023/11/07 10:08:13;;;;;;;2.10;0.70;;;;;;;11.26;66.35;96441.27;106693;1285;22567;-87
2023/11/07 10:10:39;;;;;;;1.90;0.80;;;;;;;11.29;66.61;96436.66;106671;1284;137174;-87
2023/11/07 10:13:10;;;;;;;1.80;0.80;;;;;;;11.33;66.45;96432.45;106768;1281;22541;-87
2023/11/07 10:15:36;;;;;;;1.60;0.70;;;;;;;11.33;66.48;96420.23;106688;1282;24269;-87
2023/11/07 10:18:04;;;;;;;2.10;0.90;;;;;;;11.34;66.47;96419.61;106542;1263;136935;-87
2023/11/07 10:20:31;;;;;;;3.40;1.20;;;;;;;11.36;66.39;96413.98;106710;1285;22541;-87
2023/11/07 10:23:00;;;;;;;2.50;0.80;;;;;;;11.39;66.65;96417.11;106586;1284;137596;-87
2023/11/07 10:25:29;;;;;;;2.00;0.90;;;;;;;11.42;67.07;96416.51;106665;1284;24237;-86
2023/11/07 10:27:59;;;;;;;2.70;0.90;;;;;;;11.46;66.45;96418.21;106829;1284;22526;-87
2023/11/07 10:30:39;;;;;;;1.60;1.30;;;;;;;11.49;65.73;96415.88;106556;1285;137485;-87
2023/11/07 10:33:08;;;;;;;2.70;1.70;;;;;;;11.52;65.36;96417.94;106669;1284;22527;-87
2023/11/07 10:35:54;;;;;;;2.80;1.40;;;;;;;11.54;65.67;96414.63;106608;1275;136945;-87
2023/11/07 10:38:24;;;;;;;1.90;1.10;;;;;;;11.56;65.21;96416.60;106776;1273;22604;-87
2023/11/07 10:40:49;;;;;;;2.20;1.00;;;;;;;11.56;65.00;96414.88;106580;1272;137540;-87
2023/11/07 10:43:35;;;;;;;2.60;2.40;;;;;;;11.54;65.14;96413.27;106623;1285;23991;-87
2023/11/07 10:46:05;;;;;;;3.40;1.20;;;;;;;11.52;64.40;96414.01;109815;1284;22357;-87
2023/11/07 10:48:33;;;;;;;2.40;1.00;;;;;;;11.54;64.77;96408.52;107894;1285;137327;-87
2023/11/07 10:51:00;;;;;;;3.30;1.80;;;;;;;11.56;64.87;96404.27;106885;1285;22547;-87
2023/11/07 10:53:26;;;;;;;3.40;1.50;;;;;;;11.57;64.54;96402.71;106784;1270;137090;-87
2023/11/07 10:55:53;;;;;;;2.00;1.00;;;;;;;11.60;65.31;96401.53;106788;1285;22536;-87
2023/11/07 10:58:19;;;;;;;2.00;0.80;;;;;;;11.63;64.64;96402.74;106774;1279;22544;-87
2023/11/07 11:00:45;;;;;;;3.20;0.80;;;;;;;11.65;64.96;96396.23;106821;1284;136802;-87
2023/11/07 11:03:12;;;;;;;3.00;1.30;;;;;;;11.70;64.60;96393.88;106652;1285;23482;-88
2023/11/07 11:05:38;;;;;;;2.70;0.80;;;;;;;11.74;65.32;96394.16;106597;1285;137459;-87
2023/11/07 11:08:04;;;;;;;1.80;1.00;;;;;;;11.78;64.87;96389.86;106781;1284;23354;-87
2023/11/07 11:10:31;;;;;;;2.50;0.90;;;;;;;11.78;64.28;96387.06;106595;1285;137177;-86
2023/11/07 11:12:58;;;;;;;3.20;0.80;;;;;;;11.78;65.02;96383.59;106672;1285;23982;-87
2023/11/07 11:15:24;;;;;;;2.00;0.80;;;;;;;11.80;64.79;96381.58;106730;1285;26534;-87
2023/11/07 11:17:55;;;;;;;2.90;1.00;;;;;;;11.84;65.53;96378.71;106641;1285;137487;-86
2023/11/07 11:20:25;;;;;;;2.70;1.20;;;;;;;11.88;65.46;96380.39;106679;1285;22580;-87
2023/11/07 11:23:17;;;;;;;2.90;1.30;;;;;;;11.92;65.20;96382.52;109727;1285;137696;-87
2023/11/07 11:25:48;;;;;;;1.70;0.70;;;;;;;11.90;64.70;96381.14;109782;1282;22243;-87
2023/11/07 11:28:14;;;;;;;1.40;0.60;;;;;;;11.90;64.15;96377.97;109770;1285;22427;-87
2023/11/07 11:30:40;;;;;;;1.90;0.90;;;;;;;11.89;64.42;96376.48;109321;1284;138130;-87
2023/11/07 11:33:10;;;;;;;2.20;0.80;;;;;;;11.91;64.29;96369.58;106927;1285;22610;-87
2023/11/07 11:35:39;;;;;;;2.40;1.00;;;;;;;11.93;64.91;96369.02;106849;1276;137425;-87
2023/11/07 11:38:21;;;;;;;3.20;1.20;;;;;;;11.94;64.96;96366.73;106677;1279;22543;-87
2023/11/07 11:40:59;;;;;;;4.90;1.20;;;;;;;11.97;65.13;96364.19;106612;1276;137355;-87
2023/11/07 11:43:32;;;;;;;2.80;1.00;;;;;;;11.97;65.68;96364.98;109729;1285;22206;-87
2023/11/07 11:46:14;;;;;;;1.80;1.20;;;;;;;12.02;65.76;96361.29;108026;1285;22582;-87
2023/11/07 11:48:55;;;;;;;3.10;1.20;;;;;;;12.08;65.99;96357.77;106648;1285;137799;-87
2023/11/07 11:51:40;;;;;;;1.30;0.80;;;;;;;12.13;65.64;96351.85;106714;1285;22583;-87
2023/11/07 11:54:07;;;;;;;1.90;0.90;;;;;;;12.10;65.19;96350.61;106665;1283;137209;-87
2023/11/07 11:56:54;;;;;;;3.60;1.20;;;;;;;12.11;65.11;96353.54;106685;1279;22575;-87
2023/11/07 11:59:21;;;;;;;3.20;1.10;;;;;;;12.12;65.16;96353.17;106839;1280;137615;-86
2023/11/07 12:01:59;;;;;;;1.20;0.70;;;;;;;12.12;64.90;96358.35;106938;1279;24268;-87
2023/11/07 12:04:28;;;;;;;1.50;0.70;;;;;;;12.12;64.68;96357.31;106827;1259;137285;-86
2023/11/07 12:07:20;;;;;;;3.40;1.00;;;;;;;12.11;64.53;96354.45;106953;1281;25437;-87
2023/11/07 12:09:57;;;;;;;2.30;1.20;;;;;;;12.12;64.08;96356.11;106894;1281;23916;-87
2023/11/07 12:12:24;;;;;;;4.90;1.10;;;;;;;12.14;64.23;96354.04;106847;1270;137481;-87
2023/11/07 12:14:55;;;;;;;2.50;1.30;;;;;;;12.15;64.60;96356.73;106934;1281;24231;-87
2023/11/07 12:17:21;;;;;;;2.90;0.90;;;;;;;12.13;64.18;96353.35;106767;1281;137186;-87
2023/11/07 12:19:48;;;;;;;2.50;1.30;;;;;;;12.10;64.22;96356.54;106881;1280;23007;-87
2023/11/07 12:22:14;;;;;;;6.40;2.00;;;;;;;12.08;63.53;96355.37;107211;1281;22609;-87
2023/11/07 12:24:40;;;;;;;6.10;2.00;;;;;;;12.04;64.35;96354.11;107110;1281;137503;-86
2023/11/07 12:27:06;;;;;;;3.80;1.80;;;;;;;12.05;64.77;96352.27;107211;1281;24208;-87
2023/11/07 12:29:34;;;;;;;2.30;1.00;;;;;;;12.07;64.67;96351.36;107195;1280;137191;-86
2023/11/07 12:32:00;;;;;;;3.90;1.00;;;;;;;12.08;64.60;96358.86;107117;1277;25431;-87
2023/11/07 12:34:36;;;;;;;3.00;1.40;;;;;;;12.10;64.77;96356.34;106843;1281;137304;-86
2023/11/07 12:37:10;;;;;;;2.70;1.10;;;;;;;12.13;65.12;96354.46;106899;1270;26129;-87
2023/11/07 12:39:36;;;;;;;4.90;1.20;;;;;;;12.13;64.97;96353.34;108173;1281;22570;-87
2023/11/07 12:42:02;;;;;;;2.80;1.30;;;;;;;12.13;64.71;96351.42;106782;1281;137971;-87
2023/11/07 12:44:28;;;;;;;3.10;1.60;;;;;;;12.15;64.94;96349.14;106922;1273;25340;-87
2023/11/07 12:46:54;;;;;;;4.50;1.60;;;;;;;12.17;65.32;96344.79;106867;1267;137344;-87
2023/11/07 12:49:20;;;;;;;5.00;1.50;;;;;;;12.20;65.35;96338.48;106947;1273;22642;-87
2023/11/07 12:51:48;;;;;;;3.10;1.50;;;;;;;12.24;65.34;96335.66;106913;1281;25422;-86
2023/11/07 12:54:14;;;;;;;3.10;1.40;;;;;;;12.25;65.36;96338.75;106781;1281;137802;-87
2023/11/07 12:56:44;;;;;;;3.50;1.40;;;;;;;12.26;65.22;96335.59;109980;1281;22368;-87
2023/11/07 12:59:13;;;;;;;3.20;1.50;;;;;;;12.26;65.35;96342.48;109891;1279;137663;-86
2023/11/07 13:01:40;;;;;;;2.10;1.00;;;;;;;12.26;65.46;96338.27;109061;1273;22583;-87
2023/11/07 13:04:16;;;;;;;2.80;1.40;;;;;;;12.26;65.25;96338.84;106908;1281;23882;-87
2023/11/07 13:06:54;;;;;;;2.70;1.40;;;;;;;12.25;65.31;96342.32;107021;1280;137062;-87
2023/11/07 13:09:27;;;;;;;3.80;1.70;;;;;;;12.24;65.38;96339.15;106950;1281;22549;-87
2023/11/07 13:12:08;;;;;;;3.50;1.30;;;;;;;12.23;65.47;96336.30;106774;1281;137178;-86
2023/11/07 13:14:35;;;;;;;3.70;1.60;;;;;;;12.21;65.62;96337.90;106945;1281;22653;-87
2023/11/07 13:17:05;;;;;;;4.10;2.50;;;;;;;12.20;65.52;96336.11;106815;1281;137408;-87
2023/11/07 13:19:31;;;;;;;5.40;2.30;;;;;;;12.19;65.73;96337.33;106968;1281;25190;-87
2023/11/07 13:21:57;;;;;;;4.30;2.30;;;;;;;12.17;66.15;96340.14;106860;1281;24413;-86
2023/11/07 13:24:25;;;;;;;5.40;1.80;;;;;;;12.16;66.38;96340.62;106806;1281;137142;-87
2023/11/07 13:26:52;;;;;;;5.30;2.60;;;;;;;12.15;66.01;96340.97;106974;1280;22606;-87
2023/11/07 13:29:22;;;;;;;5.20;2.20;;;;;;;12.15;66.38;96342.10;106838;1279;137828;-87
2023/11/07 13:31:49;;;;;;;2.50;1.60;;;;;;;12.16;66.15;96341.70;110001;1273;22180;-87
2023/11/07 13:34:16;;;;;;;7.20;2.30;;;;;;;12.15;66.32;96339.33;107454;1274;22594;-87
2023/11/07 13:36:43;;;;;;;2.50;1.90;;;;;;;12.16;66.56;96342.05;107892;1281;137231;-88
2023/11/07 13:39:16;;;;;;;3.70;1.50;;;;;;;12.18;66.63;96340.62;107112;1281;22665;-87
2023/11/07 13:41:46;;;;;;;4.20;1.20;;;;;;;12.16;66.63;96340.69;107106;1280;137455;-87
2023/11/07 13:44:12;;;;;;;3.40;1.40;;;;;;;12.13;66.06;96341.40;106949;1280;22537;-86
2023/11/07 13:46:39;;;;;;;2.80;1.20;;;;;;;12.11;66.23;96344.11;106804;1280;137885;-87
2023/11/07 13:49:08;;;;;;;2.70;1.30;;;;;;;12.10;66.09;96344.36;106985;1281;24206;-87
2023/11/07 13:51:38;;;;;;;3.00;1.70;;;;;;;12.09;66.27;96341.42;106862;1281;24441;-86
2023/11/07 13:54:09;;;;;;;2.70;1.30;;;;;;;12.07;66.30;96341.26;106880;1281;137512;-87
2023/11/07 13:56:35;;;;;;;3.10;1.10;;;;;;;12.08;67.10;96342.55;107161;1281;25009;-87
2023/11/07 13:59:03;;;;;;;3.20;1.40;;;;;;;12.06;69.08;96340.82;107198;1279;137319;-87
2023/11/07 14:01:29;;;;;;;2.10;1.30;;;;;;;12.03;68.94;96342.39;107085;1281;24202;-87
2023/11/07 14:03:55;;;;;;;2.60;1.60;;;;;;;12.00;68.99;96343.73;106879;1281;24246;-87
2023/11/07 14:06:21;;;;;;;4.50;1.80;;;;;;;11.95;68.07;96345.30;106970;1273;137152;-86
2023/11/07 14:08:47;;;;;;;4.40;1.90;;;;;;;11.90;67.86;96345.29;107014;1262;22618;-87
2023/11/07 14:11:17;;;;;;;3.30;1.90;;;;;;;11.86;69.25;96347.12;106786;1281;137627;-87
2023/11/07 14:13:50;;;;;;;3.40;1.50;;;;;;;11.84;70.52;96341.83;110030;1265;22177;-87
2023/11/07 14:16:18;;;;;;;3.50;1.70;;;;;;;11.83;70.74;96342.86;109535;1281;22527;-87
2023/11/07 14:18:45;;;;;;;3.50;1.40;;;;;;;11.81;71.60;96341.36;106946;1274;136930;-87
2023/11/07 14:21:12;;;;;;;2.90;1.40;;;;;;;11.78;72.21;96341.05;106984;1280;24408;-87
2023/11/07 14:23:40;;;;;;;4.00;1.30;;;;;;;11.74;72.78;96341.70;106868;1281;137819;-87
2023/11/07 14:26:10;;;;;;;3.40;1.50;;;;;;;11.70;73.19;96339.74;106916;1278;22857;-87
2023/11/07 14:28:37;;;;;;;4.40;1.90;;;;;;;11.63;72.87;96336.09;106919;1279;138558;-86
2023/11/07 14:31:07;;;;;;;2.50;1.60;;;;;;;11.59;71.94;96334.94;106926;1270;23037;-87
2023/11/07 14:33:33;;;;;;;3.30;2.20;;;;;;;11.54;70.62;96335.98;106889;1271;24212;-87
2023/11/07 14:35:58;;;;;;;3.70;1.80;;;;;;;11.49;70.64;96331.89;106832;1280;137826;-87
2023/11/07 14:38:28;;;;;;;4.40;2.10;;;;;;;11.48;70.47;96332.27;106993;1281;23399;-87
2023/11/07 14:40:55;;;;;;;4.00;2.30;;;;;;;11.46;71.35;96330.31;107089;1281;138548;-87
2023/11/07 14:43:21;;;;;;;3.70;1.80;;;;;;;11.42;72.50;96326.37;107043;1280;23914;-87
2023/11/07 14:45:47;;;;;;;3.20;1.50;;;;;;;11.38;73.04;96324.27;106901;1281;22553;-87
2023/11/07 14:48:14;;;;;;;2.80;1.50;;;;;;;11.33;73.99;96325.04;106829;1280;137780;-87
2023/11/07 14:50:40;;;;;;;4.00;1.60;;;;;;;11.26;74.09;96324.87;106833;1281;24236;-87
2023/11/07 14:53:07;;;;;;;4.20;1.80;;;;;;;11.17;74.16;96324.73;106836;1280;137927;-87
2023/11/07 14:55:34;;;;;;;3.00;1.50;;;;;;;11.07;73.72;96321.53;106960;1266;24229;-87
2023/11/07 14:58:01;;;;;;;4.20;1.80;;;;;;;10.97;73.82;96321.48;106960;1280;24238;-86
2023/11/07 15:00:27;;;;;;;4.10;1.70;;;;;;;10.87;73.77;96319.56;106867;1279;137855;-86
2023/11/07 15:02:56;;;;;;;4.00;1.80;;;;;;;10.75;73.67;96320.26;106940;1280;24235;-87
2023/11/07 15:05:25;;;;;;;4.00;1.90;;;;;;;10.65;74.18;96327.06;109925;1280;139115;-87
2023/11/07 15:07:51;;;;;;;5.00;1.70;;;;;;;10.55;74.48;96329.14;109943;1281;22176;-88
2023/11/07 15:10:23;;;;;;;2.50;1.50;;;;;;;10.45;74.73;96329.60;107187;1280;22538;-86
2023/11/07 15:12:51;;;;;;;5.10;2.10;;;;;;;10.33;75.05;96320.52;106857;1281;22644;-87
2023/11/07 15:15:19;;;;;;;4.80;1.80;;;;;;;10.27;75.26;96323.09;109976;1281;22436;-88
2023/11/07 15:17:46;;;;;;;4.40;2.10;;;;;;;10.17;75.11;96321.07;109896;1281;137952;-87
2023/11/07 15:20:12;;;;;;;3.00;1.60;;;;;;;10.09;75.29;96319.33;109961;1281;22311;-88
2023/11/07 15:22:41;;;;;;;4.50;1.50;;;;;;;10.01;75.67;96323.27;109843;1281;138272;-87
2023/11/07 15:25:11;;;;;;;3.10;1.40;;;;;;;9.92;75.98;96322.13;108446;1281;25399;-87
2023/11/07 15:27:42;;;;;;;3.10;2.00;;;;;;;9.85;76.28;96325.22;106865;1281;22781;-88
2023/11/07 15:30:12;;;;;;;3.40;1.30;;;;;;;9.77;76.45;96322.71;106783;1281;138282;-87
2023/11/07 15:32:38;;;;;;;3.70;2.00;;;;;;;9.71;76.57;96322.06;106989;1273;22655;-87
2023/11/07 15:35:10;;;;;;;2.60;1.70;;;;;;;9.63;77.14;96322.56;106793;1281;138324;-87
2023/11/07 15:37:37;;;;;;;2.80;2.10;;;;;;;9.57;77.48;96322.08;106887;1281;23400;-86
2023/11/07 15:40:06;;;;;;;5.00;2.90;;;;;;;9.51;77.55;96319.89;109977;1281;22205;-88
2023/11/07 15:42:34;;;;;;;3.90;1.90;;;;;;;9.44;77.63;96317.23;108155;1281;137830;-87
2023/11/07 15:45:00;;;;;;;3.90;2.30;;;;;;;9.38;77.86;96319.13;109928;1281;22220;-87
2023/11/07 15:47:26;;;;;;;3.70;2.10;;;;;;;9.32;78.15;96314.96;109880;1281;138286;-88
2023/11/07 15:49:52;;;;;;;5.40;2.00;;;;;;;9.26;78.17;96318.22;110010;1281;22202;-88
2023/11/07 15:52:18;;;;;;;3.40;1.70;;;;;;;9.19;78.48;96320.29;109998;1281;22488;-87
2023/11/07 15:54:44;;;;;;;3.10;1.80;;;;;;;9.13;78.79;96322.23;109918;1281;138518;-87
2023/11/07 15:57:11;;;;;;;4.30;1.70;;;;;;;9.07;79.07;96323.71;109995;1281;22231;-87
2023/11/07 15:59:37;;;;;;;5.00;2.30;;;;;;;8.99;79.24;96322.00;108093;1273;138226;-87
2023/11/07 16:02:05;;;;;;;3.00;1.90;;;;;;;8.94;79.51;96321.50;107183;1281;22533;-87
2023/11/07 16:04:31;;;;;;;3.70;1.90;;;;;;;8.88;79.69;96324.40;106917;1281;137882;-87
2023/11/07 16:06:59;;;;;;;2.80;1.90;;;;;;;8.84;80.00;96323.02;106960;1274;22557;-87
2023/11/07 16:09:24;;;;;;;3.70;2.00;;;;;;;8.79;80.23;96320.84;107134;1281;22551;-87
2023/11/07 16:11:51;;;;;;;2.80;1.60;;;;;;;8.74;80.42;96317.94;106892;1282;137976;-87
2023/11/07 16:14:17;;;;;;;3.10;2.00;;;;;;;8.67;80.82;96319.10;107113;1281;22671;-87
2023/11/07 16:16:44;;;;;;;5.50;1.90;;;;;;;8.61;81.16;96316.08;107062;1275;137859;-87
2023/11/07 16:19:10;;;;;;;3.10;2.10;;;;;;;8.54;81.24;96317.06;106971;1281;22638;-86
2023/11/07 16:21:36;;;;;;;3.30;1.70;;;;;;;8.50;81.56;96322.34;106915;1281;25151;-86
2023/11/07 16:24:02;;;;;;;2.90;1.80;;;;;;;8.46;81.59;96319.37;106816;1281;137983;-87
2023/11/07 16:26:37;;;;;;;3.00;1.50;;;;;;;8.39;81.76;96316.77;106899;1281;23006;-86
2023/11/07 16:29:03;;;;;;;2.30;1.50;;;;;;;8.35;82.43;96315.67;106815;1275;137779;-87
2023/11/07 16:31:30;;;;;;;3.40;1.60;;;;;;;8.32;82.62;96311.04;106902;1281;24366;-87
2023/11/07 16:33:59;;;;;;;2.60;1.50;;;;;;;8.27;82.48;96316.15;106919;1269;23802;-86
2023/11/07 16:36:26;;;;;;;2.90;1.50;;;;;;;8.24;82.86;96319.63;106722;1281;137564;-87
2023/11/07 16:38:51;;;;;;;3.40;1.40;;;;;;;8.20;82.67;96316.98;107004;1281;23208;-87
2023/11/07 16:41:18;;;;;;;4.70;1.70;;;;;;;8.17;83.18;96320.84;106819;1281;138177;-87
2023/11/07 16:43:48;;;;;;;3.40;1.60;;;;;;;8.14;83.76;96325.30;106872;1267;22713;-87
2023/11/07 16:46:14;;;;;;;3.60;1.80;;;;;;;8.09;83.61;96322.86;107639;1281;24262;-87
2023/11/07 16:48:41;;;;;;;2.00;1.20;;;;;;;8.05;83.65;96324.53;109901;1273;138056;-87
2023/11/07 16:51:07;;;;;;;4.10;1.40;;;;;;;8.02;84.05;96326.67;110033;1273;22221;-87
2023/11/07 16:53:34;;;;;;;2.80;1.60;;;;;;;8.02;84.90;96323.80;109790;1273;138437;-88
2023/11/07 16:56:00;;;;;;;2.60;1.60;;;;;;;8.02;85.22;96325.67;109940;1281;22992;-87
2023/11/07 16:58:26;;;;;;;3.60;1.80;;;;;;;8.03;85.45;96324.73;108694;1281;137709;-86
2023/11/07 17:00:52;;;;;;;4.00;1.80;;;;;;;8.03;85.85;96325.41;106923;1281;22660;-87
2023/11/07 17:03:18;;;;;;;2.60;1.60;;;;;;;8.03;86.08;96327.15;106914;1281;25370;-86
2023/11/07 17:05:44;;;;;;;4.20;2.20;;;;;;;8.04;86.12;96333.11;106804;1276;137496;-86
2023/11/07 17:08:12;;;;;;;3.60;2.00;;;;;;;8.04;86.26;96332.23;106898;1281;22544;-86
2023/11/07 17:10:39;;;;;;;4.60;1.90;;;;;;;8.04;86.50;96339.32;106774;1281;138574;-87
2023/11/07 17:13:05;;;;;;;4.50;2.20;;;;;;;8.02;86.62;96343.83;106870;1276;24234;-86
2023/11/07 17:15:32;;;;;;;3.50;2.00;;;;;;;8.01;86.89;96345.12;106903;1281;22534;-86
2023/11/07 17:17:58;;;;;;;4.10;1.90;;;;;;;8.00;87.80;96343.93;106894;1274;138111;-87
2023/11/07 17:20:24;;;;;;;3.10;1.90;;;;;;;7.98;87.82;96345.16;106995;1278;22563;-86
2023/11/07 17:22:51;;;;;;;3.60;2.30;;;;;;;7.97;87.86;96343.45;107005;1281;137819;-87
2023/11/07 17:25:16;;;;;;;3.60;1.80;;;;;;;7.98;87.75;96341.35;107088;1281;22544;-87
2023/11/07 17:27:46;;;;;;;5.60;2.80;;;;;;;7.99;88.65;96339.50;106905;1275;22578;-86
2023/11/07 17:30:13;;;;;;;4.20;2.20;;;;;;;7.98;88.88;96338.38;107020;1270;137685;-86
2023/11/07 17:32:39;;;;;;;6.10;2.80;;;;;;;7.98;88.47;96339.73;107094;1273;24219;-86
2023/11/07 17:35:06;;;;;;;4.40;2.20;;;;;;;8.00;88.71;96335.23;106773;1280;137644;-87
2023/11/07 17:37:32;;;;;;;3.40;2.20;;;;;;;8.01;88.50;96329.11;106951;1281;24107;-86
2023/11/07 17:39:59;;;;;;;3.70;2.20;;;;;;;8.02;89.17;96326.02;109015;1281;24467;-86
2023/11/07 17:42:25;;;;;;;5.00;2.30;;;;;;;8.04;89.69;96321.66;106838;1280;137826;-86
2023/11/07 17:44:50;;;;;;;3.80;2.40;;;;;;;8.05;89.55;96312.98;106859;1276;22652;-87
2023/11/07 17:47:18;;;;;;;4.20;2.10;;;;;;;8.07;89.50;96310.16;106851;1280;137994;-86
2023/11/07 17:49:46;;;;;;;4.50;2.30;;;;;;;8.10;89.30;96309.63;107137;1281;25332;-86
2023/11/07 17:52:12;;;;;;;5.30;2.30;;;;;;;8.12;90.04;96306.59;110019;1280;22205;-87
2023/11/07 17:54:38;;;;;;;3.90;2.20;;;;;;;8.16;90.10;96301.47;109914;1281;139032;-87
2023/11/07 17:57:04;;;;;;;3.50;2.00;;;;;;;8.16;90.57;96300.73;110056;1280;22183;-87
2023/11/07 17:59:30;;;;;;;3.80;2.30;;;;;;;8.19;90.34;96300.94;109977;1280;138356;-87
2023/11/07 18:01:55;;;;;;;4.60;1.90;;;;;;;8.22;89.84;96302.14;107513;1280;22619;-87
2023/11/07 18:04:21;;;;;;;2.80;2.10;;;;;;;8.24;89.49;96300.19;106912;1280;25336;-86
2023/11/07 18:06:47;;;;;;;3.80;1.80;;;;;;;8.28;89.59;96303.98;106838;1280;137788;-87
2023/11/07 18:09:15;;;;;;;5.10;2.50;;;;;;;8.32;89.70;96306.70;106978;1280;24266;-86
2023/11/07 18:11:44;;;;;;;3.90;2.40;;;;;;;8.34;89.47;96305.94;107182;1280;137492;-86
2023/11/07 18:14:13;;;;;;;4.30;2.40;;;;;;;8.36;89.17;96302.46;106948;1280;25355;-87
2023/11/07 18:16:42;;;;;;;4.60;2.80;;;;;;;8.37;88.97;96298.15;107006;1280;138280;-86
2023/11/07 18:19:11;;;;;;;5.10;2.90;;;;;;;8.40;88.54;96292.73;107224;1281;24115;-86
2023/11/07 18:21:42;;;;;;;5.60;3.30;;;;;;;8.41;88.34;96291.04;106995;1276;24385;-87
2023/11/07 18:24:09;;;;;;;6.80;3.20;;;;;;;8.43;88.16;96289.05;106806;1280;137444;-87
2023/11/07 18:26:35;;;;;;;4.20;3.20;;;;;;;8.47;88.02;96293.20;106837;1276;25413;-87
2023/11/07 18:29:01;;;;;;;5.60;3.20;;;;;;;8.48;88.14;96293.41;106885;1273;138184;-87
2023/11/07 18:31:27;;;;;;;5.80;4.40;;;;;;;8.50;88.10;96289.35;106864;1280;22672;-87
2023/11/07 18:33:56;;;;;;;5.50;3.10;;;;;;;8.53;88.30;96293.50;106866;1281;24240;-87
2023/11/07 18:36:22;;;;;;;16.40;5.20;;;;;;;8.51;88.41;96291.48;109859;1276;138661;-88
2023/11/07 18:38:48;;;;;;;32.00;11.00;;;;;;;8.50;88.17;96293.14;110012;1280;22933;-88
2023/11/07 18:41:16;;;;;;;12.80;4.60;;;;;;;8.52;88.10;96292.73;109924;1280;138258;-88
2023/11/07 18:43:43;;;;;;;6.10;3.40;;;;;;;8.54;88.34;96291.20;110020;1272;22231;-88
2023/11/07 18:46:10;;;;;;;6.00;3.00;;;;;;;8.55;88.53;96294.66;110032;1281;22194;-88